Terminal Aerodrome Forecast
Issued by NWS Midland/Odessa, TX

Home | Current Version | Previous Version | Text Only | Print | Product List | Glossary On
Versions: 1 2 3 4 5 6 7 8 9 10 11 12 13 14 15 16 17
000
FTUS44 KMAF 111700
TAFMAF
TAF
KMAF 111721Z 1118/1218 16012G19KT P6SM BKN050
     FM120000 15016G24KT P6SM SCT060 SCT250
     FM120400 14011KT P6SM FEW040 SCT120=

USA.gov is the U.S. government's official web portal to all federal, state and local government web resources and services.